Time;durP1;ratioP1;P1;durP2;ratioP2;P2;SDS_P1;SDS_P2;PMS_P1;PMS_P2;Temp;Humidity;BMP_temperature;BMP_pressure;BME280_temperature;BME280_humidity;BME280_pressure;Samples;Min_cycle;Max_cycle;Signal;HPM_P1;HPM_P2
2023/08/12 00:01:24;;;;;;;2.47;1.85;;;21.30;68.10;;;;;;5011465;28;20337;-50
2023/08/12 00:03:50;;;;;;;2.67;2.00;;;21.40;68.10;;;;;;5002403;28;20106;-52
2023/08/12 00:06:16;;;;;;;2.50;2.30;;;21.30;68.20;;;;;;5011410;28;20487;-52
2023/08/12 00:08:41;;;;;;;2.70;1.83;;;21.30;68.00;;;;;;5002354;28;20041;-50
2023/08/12 00:11:07;;;;;;;1.95;1.80;;;21.30;68.10;;;;;;5004037;28;20033;-49
2023/08/12 00:13:32;;;;;;;2.22;2.00;;;21.30;68.10;;;;;;5000903;28;20053;-47
2023/08/12 00:15:58;;;;;;;3.28;1.90;;;21.40;68.10;;;;;;5002342;28;20325;-54
2023/08/12 00:18:24;;;;;;;2.30;1.95;;;21.30;68.20;;;;;;4998249;28;20250;-53
2023/08/12 00:20:49;;;;;;;2.30;1.95;;;21.40;68.20;;;;;;4998919;28;20042;-51
2023/08/12 00:23:15;;;;;;;2.10;1.90;;;21.40;68.10;;;;;;4997803;28;20057;-52
2023/08/12 00:25:40;;;;;;;2.28;1.85;;;21.30;68.10;;;;;;5005452;28;20097;-51
2023/08/12 00:28:06;;;;;;;2.38;1.90;;;21.40;68.20;;;;;;4996513;28;20026;-51
2023/08/12 00:30:31;;;;;;;2.42;2.22;;;21.40;68.20;;;;;;4994204;28;20385;-47
2023/08/12 00:32:57;;;;;;;1.90;1.77;;;21.40;68.10;;;;;;4993535;28;20073;-49
2023/08/12 00:35:23;;;;;;;2.83;2.10;;;21.40;68.20;;;;;;4992199;28;20557;-49
2023/08/12 00:37:49;;;;;;;2.40;2.03;;;21.40;68.00;;;;;;4991797;28;20038;-53
2023/08/12 00:40:14;;;;;;;2.30;1.92;;;21.40;68.20;;;;;;4996012;28;20060;-52
2023/08/12 00:42:40;;;;;;;2.00;1.75;;;21.40;68.20;;;;;;4992496;28;20518;-51
2023/08/12 00:45:10;;;;;;;2.78;2.10;;;21.40;68.10;;;;;;4999734;28;20518;-51
2023/08/12 00:47:36;;;;;;;2.58;2.08;;;21.40;68.10;;;;;;4996070;28;20393;-52
2023/08/12 00:50:02;;;;;;;2.33;1.83;;;21.40;68.10;;;;;;4998814;28;20364;-52
2023/08/12 00:52:28;;;;;;;2.47;2.25;;;21.40;68.10;;;;;;4996404;28;20038;-51
2023/08/12 00:54:54;;;;;;;3.28;1.88;;;21.40;67.90;;;;;;4997807;28;20042;-52
2023/08/12 00:57:19;;;;;;;2.10;1.90;;;21.40;68.10;;;;;;4996002;28;20550;-52
2023/08/12 00:59:45;;;;;;;2.55;2.03;;;21.40;68.00;;;;;;4993443;28;20034;-51
2023/08/12 01:02:12;;;;;;;2.80;2.13;;;21.40;68.00;;;;;;4993342;28;20188;-51
2023/08/12 01:04:37;;;;;;;2.30;1.90;;;21.40;67.90;;;;;;4991178;28;20026;-52
2023/08/12 01:07:03;;;;;;;1.92;1.70;;;21.40;67.90;;;;;;5000736;23;20031;-48
2023/08/12 01:09:29;;;;;;;2.40;1.85;;;21.50;67.90;;;;;;4985429;28;20541;-51
2023/08/12 01:11:59;;;;;;;2.58;1.52;;;21.50;67.80;;;;;;4985882;28;20030;-50
2023/08/12 01:14:35;;;;;;;3.40;1.70;;;21.40;67.80;;;;;;4985384;28;20041;-55
2023/08/12 01:17:03;;;;;;;2.20;2.00;;;21.50;67.80;;;;;;4985126;28;20733;-50
2023/08/12 01:19:38;;;;;;;3.30;1.83;;;21.40;67.80;;;;;;4985909;28;20058;-54
2023/08/12 01:22:07;;;;;;;2.40;1.58;;;21.40;67.80;;;;;;4981040;28;20038;-51
2023/08/12 01:24:43;;;;;;;2.92;1.58;;;21.40;67.90;;;;;;4985446;28;20133;-48
2023/08/12 01:27:11;;;;;;;2.58;2.03;;;21.40;68.50;;;;;;4984918;28;20217;-48
2023/08/12 01:29:41;;;;;;;1.80;1.70;;;21.40;67.80;;;;;;4984869;28;20034;-50
2023/08/12 01:32:06;;;;;;;1.75;1.65;;;21.40;67.80;;;;;;4978655;28;20042;-51
2023/08/12 01:34:46;;;;;;;1.70;1.60;;;21.40;67.70;;;;;;4984665;28;20035;-51
2023/08/12 01:37:20;;;;;;;1.90;1.40;;;21.40;67.80;;;;;;4980370;28;20030;-54
2023/08/12 01:39:48;;;;;;;1.75;1.65;;;21.40;68.30;;;;;;4984914;28;20553;-52
2023/08/12 01:42:14;;;;;;;1.77;1.60;;;21.40;67.80;;;;;;4980665;28;20030;-51
2023/08/12 01:44:40;;;;;;;1.83;1.58;;;21.40;67.70;;;;;;4981087;28;20043;-50
2023/08/12 01:47:07;;;;;;;1.70;1.60;;;21.40;67.80;;;;;;4978601;28;20084;-49
2023/08/12 01:49:33;;;;;;;2.15;1.60;;;21.40;67.60;;;;;;4975367;28;20031;-51
2023/08/12 01:51:58;;;;;;;2.60;2.05;;;21.40;67.70;;;;;;4982204;28;20084;-51
2023/08/12 01:54:24;;;;;;;1.80;1.70;;;21.40;67.70;;;;;;4980629;28;20038;-54
2023/08/12 01:56:49;;;;;;;1.88;1.77;;;21.40;67.70;;;;;;4979197;28;20118;-47
2023/08/12 01:59:15;;;;;;;1.55;1.45;;;21.40;67.70;;;;;;4981629;28;20033;-53
2023/08/12 02:01:40;;;;;;;1.70;1.60;;;21.40;67.70;;;;;;4984262;28;20026;-49
2023/08/12 02:04:06;;;;;;;1.67;1.58;;;21.40;67.60;;;;;;4984694;28;20042;-48
2023/08/12 02:06:31;;;;;;;3.92;1.90;;;21.40;67.60;;;;;;4983387;28;20035;-55
2023/08/12 02:08:57;;;;;;;1.80;1.70;;;21.40;67.60;;;;;;4985004;28;20038;-53
2023/08/12 02:11:22;;;;;;;1.70;1.60;;;21.40;67.50;;;;;;4983985;28;20031;-52
2023/08/12 02:13:48;;;;;;;3.03;1.92;;;21.40;67.60;;;;;;4983463;28;20031;-49
2023/08/12 02:16:14;;;;;;;2.80;1.52;;;21.40;67.50;;;;;;4987020;28;20341;-50
2023/08/12 02:18:39;;;;;;;1.70;1.40;;;21.40;67.50;;;;;;4981390;28;20538;-51
2023/08/12 02:21:05;;;;;;;1.70;1.60;;;21.40;67.50;;;;;;4984206;28;20420;-51
2023/08/12 02:23:30;;;;;;;2.67;1.65;;;21.40;67.60;;;;;;4983679;28;20754;-49
2023/08/12 02:25:56;;;;;;;2.53;2.00;;;21.40;67.60;;;;;;4984161;28;20031;-53
2023/08/12 02:28:21;;;;;;;1.70;1.55;;;21.40;67.50;;;;;;4984131;28;20046;-51
2023/08/12 02:30:47;;;;;;;2.10;1.90;;;21.40;67.60;;;;;;4983319;28;20766;-50
2023/08/12 02:33:12;;;;;;;2.38;1.92;;;21.40;67.50;;;;;;4984834;28;20160;-52
2023/08/12 02:35:38;;;;;;;2.10;1.50;;;21.40;67.60;;;;;;4982605;28;20392;-54
2023/08/12 02:38:04;;;;;;;2.25;1.50;;;21.40;67.60;;;;;;4983727;28;20034;-50
2023/08/12 02:40:29;;;;;;;3.13;2.33;;;21.40;67.50;;;;;;4982882;28;20042;-52
2023/08/12 02:42:55;;;;;;;1.88;1.70;;;21.40;67.60;;;;;;4977421;28;20046;-48
2023/08/12 02:45:20;;;;;;;1.83;1.73;;;21.40;67.60;;;;;;4976518;28;20042;-53
2023/08/12 02:47:46;;;;;;;2.05;1.85;;;21.40;67.50;;;;;;4977313;28;20105;-51
2023/08/12 02:50:11;;;;;;;2.25;1.85;;;21.40;67.60;;;;;;4974484;28;20365;-48
2023/08/12 02:52:37;;;;;;;1.88;1.67;;;21.40;67.60;;;;;;4975161;28;20027;-54
2023/08/12 02:55:03;;;;;;;1.70;1.60;;;21.40;68.30;;;;;;4976984;28;20031;-53
2023/08/12 02:57:29;;;;;;;2.70;1.92;;;21.40;67.50;;;;;;4974408;28;20037;-54
2023/08/12 02:59:54;;;;;;;1.52;1.40;;;21.40;67.60;;;;;;4976361;28;20027;-56
2023/08/12 03:02:20;;;;;;;1.60;1.50;;;21.40;67.50;;;;;;4945491;28;20428;-47
2023/08/12 03:04:45;;;;;;;2.13;1.90;;;21.40;67.50;;;;;;4964021;28;20034;-48
2023/08/12 03:07:11;;;;;;;2.83;2.53;;;21.40;67.50;;;;;;4964968;28;20085;-51
2023/08/12 03:09:36;;;;;;;1.52;1.42;;;21.40;67.60;;;;;;4963901;28;20059;-53
2023/08/12 03:12:02;;;;;;;2.03;1.77;;;21.40;67.50;;;;;;4965022;28;20031;-48
2023/08/12 03:14:32;;;;;;;1.58;1.45;;;21.40;67.50;;;;;;4964895;28;20085;-47
2023/08/12 03:16:57;;;;;;;2.25;1.80;;;21.40;67.60;;;;;;4963551;28;20046;-53
2023/08/12 03:19:23;;;;;;;1.73;1.63;;;21.40;67.60;;;;;;4963102;28;20023;-51
2023/08/12 03:21:48;;;;;;;1.80;1.70;;;21.40;67.50;;;;;;4963297;28;20031;-47
2023/08/12 03:24:14;;;;;;;1.70;1.50;;;21.40;67.60;;;;;;4964648;28;20653;-48
2023/08/12 03:26:39;;;;;;;2.30;2.10;;;21.40;67.50;;;;;;4963959;28;20042;-53
2023/08/12 03:29:05;;;;;;;1.50;1.40;;;21.30;67.50;;;;;;4967569;28;20026;-53
2023/08/12 03:31:30;;;;;;;1.95;1.75;;;21.40;67.60;;;;;;4963413;28;20765;-47
2023/08/12 03:33:56;;;;;;;2.80;1.88;;;21.40;67.60;;;;;;4964160;28;20126;-52
2023/08/12 03:36:21;;;;;;;1.63;1.52;;;21.30;67.40;;;;;;4964814;28;20042;-50
2023/08/12 03:38:47;;;;;;;1.67;1.58;;;21.40;67.60;;;;;;4963293;28;20098;-54
2023/08/12 03:41:13;;;;;;;1.65;1.55;;;21.40;67.50;;;;;;4964770;28;20440;-47
2023/08/12 03:43:38;;;;;;;2.17;1.58;;;21.30;67.60;;;;;;4957540;28;20500;-55
2023/08/12 03:46:04;;;;;;;1.73;1.63;;;21.30;67.50;;;;;;4966571;28;20034;-54
2023/08/12 03:48:29;;;;;;;1.90;1.70;;;21.40;67.50;;;;;;4976352;28;20030;-52
2023/08/12 03:50:55;;;;;;;1.90;1.55;;;21.30;67.50;;;;;;4958722;28;20085;-48
2023/08/12 03:53:20;;;;;;;3.05;1.73;;;21.40;67.70;;;;;;4975291;28;20034;-53
2023/08/12 03:55:46;;;;;;;2.10;1.92;;;21.40;67.60;;;;;;4975058;28;20035;-55
2023/08/12 03:58:11;;;;;;;1.83;1.73;;;21.40;67.60;;;;;;4974981;28;20034;-50
2023/08/12 04:00:43;;;;;;;2.17;1.98;;;21.40;67.50;;;;;;4975851;28;20034;-53
2023/08/12 04:03:09;;;;;;;1.88;1.75;;;21.40;67.60;;;;;;4971038;28;20073;-48
2023/08/12 04:05:35;;;;;;;2.67;1.73;;;21.40;67.60;;;;;;4977273;28;20500;-54
2023/08/12 04:08:00;;;;;;;1.60;1.50;;;21.40;67.50;;;;;;4979211;28;20031;-55
2023/08/12 04:10:26;;;;;;;1.58;1.48;;;21.40;67.50;;;;;;4977427;28;20036;-47
2023/08/12 04:12:51;;;;;;;1.95;1.75;;;21.40;68.10;;;;;;4976375;28;20034;-52
2023/08/12 04:15:17;;;;;;;2.53;1.73;;;21.40;67.40;;;;;;4976790;28;20050;-54
2023/08/12 04:17:42;;;;;;;2.03;1.60;;;21.40;67.40;;;;;;4977592;28;20030;-46
2023/08/12 04:20:08;;;;;;;1.30;1.20;;;21.40;67.40;;;;;;4976907;28;20117;-47
2023/08/12 04:22:34;;;;;;;2.92;1.77;;;21.40;67.30;;;;;;4972547;28;20080;-48
2023/08/12 04:25:00;;;;;;;2.22;1.90;;;21.40;67.40;;;;;;4975251;28;20034;-47
2023/08/12 04:27:25;;;;;;;1.73;1.63;;;21.40;67.40;;;;;;4963783;28;20046;-49
2023/08/12 04:29:51;;;;;;;1.70;1.60;;;21.40;67.50;;;;;;4977873;28;20436;-53
2023/08/12 04:32:16;;;;;;;2.30;2.10;;;21.40;67.40;;;;;;4982358;28;20209;-49
2023/08/12 04:34:42;;;;;;;1.67;1.58;;;21.40;67.40;;;;;;4981053;28;20030;-53
2023/08/12 04:37:07;;;;;;;1.75;1.65;;;21.40;67.30;;;;;;4980583;28;20050;-55
2023/08/12 04:39:33;;;;;;;2.08;1.40;;;21.40;67.30;;;;;;4979636;28;20508;-48
2023/08/12 04:41:59;;;;;;;1.95;1.70;;;21.50;67.30;;;;;;4980739;28;20042;-53
2023/08/12 04:44:24;;;;;;;2.13;1.95;;;21.50;67.20;;;;;;4973379;28;20038;-51
2023/08/12 04:46:50;;;;;;;1.60;1.50;;;21.50;67.20;;;;;;4982028;28;20034;-51
2023/08/12 04:49:16;;;;;;;1.60;1.50;;;21.50;67.20;;;;;;4961059;28;20042;-50
2023/08/12 04:51:41;;;;;;;2.75;1.85;;;21.50;67.20;;;;;;4979583;28;20165;-48
2023/08/12 04:54:07;;;;;;;1.50;1.40;;;21.50;67.30;;;;;;4977365;28;20027;-49
2023/08/12 04:56:33;;;;;;;1.80;1.70;;;21.50;67.20;;;;;;4979659;28;20121;-49
2023/08/12 04:58:59;;;;;;;2.03;1.60;;;21.50;67.20;;;;;;4963696;28;20495;-53
2023/08/12 05:01:24;;;;;;;1.98;1.83;;;21.50;67.20;;;;;;4980226;28;20191;-54
2023/08/12 05:03:50;;;;;;;1.88;1.70;;;21.50;67.30;;;;;;4979900;28;20153;-53
2023/08/12 05:06:15;;;;;;;2.22;1.90;;;21.50;67.20;;;;;;4983756;28;20034;-51
2023/08/12 05:08:41;;;;;;;1.83;1.50;;;21.50;67.20;;;;;;4981209;28;20496;-49
2023/08/12 05:11:07;;;;;;;1.85;1.73;;;21.50;67.20;;;;;;4980235;28;20031;-49
2023/08/12 05:13:34;;;;;;;2.03;1.88;;;21.50;67.20;;;;;;4979728;28;20596;-53
2023/08/12 05:15:59;;;;;;;2.75;1.42;;;21.50;67.30;;;;;;4976901;28;20523;-50
2023/08/12 05:18:26;;;;;;;3.00;2.00;;;21.50;67.30;;;;;;4978056;28;20043;-51
2023/08/12 05:20:52;;;;;;;3.15;1.80;;;21.50;67.20;;;;;;4980440;28;20064;-49
2023/08/12 05:23:17;;;;;;;2.05;1.60;;;21.50;67.20;;;;;;4976541;28;20461;-48
2023/08/12 05:25:43;;;;;;;2.42;1.73;;;21.50;67.20;;;;;;4976975;28;20121;-53
2023/08/12 05:28:08;;;;;;;1.67;1.58;;;21.50;67.20;;;;;;4975113;28;20049;-49
2023/08/12 05:30:35;;;;;;;2.03;1.60;;;21.50;67.20;;;;;;4974228;28;20088;-49
2023/08/12 05:33:00;;;;;;;2.85;1.67;;;21.50;67.10;;;;;;4979702;28;20102;-48
2023/08/12 05:35:27;;;;;;;1.73;1.60;;;21.50;67.20;;;;;;4982002;28;20046;-51
2023/08/12 05:37:52;;;;;;;1.60;1.50;;;21.50;67.10;;;;;;4980159;28;20047;-49
2023/08/12 05:40:18;;;;;;;1.90;1.70;;;21.50;67.20;;;;;;4981449;28;20123;-48
2023/08/12 05:42:44;;;;;;;1.95;1.65;;;21.60;67.20;;;;;;4980842;28;20088;-48
2023/08/12 05:45:10;;;;;;;1.83;1.73;;;21.60;67.20;;;;;;4983151;28;20395;-51
2023/08/12 05:47:36;;;;;;;2.10;1.90;;;21.60;67.10;;;;;;4978843;28;20049;-49
2023/08/12 05:50:01;;;;;;;2.20;2.00;;;21.60;67.20;;;;;;4976072;28;20039;-50
2023/08/12 05:52:27;;;;;;;2.30;1.83;;;21.60;67.20;;;;;;4979554;28;20596;-49
2023/08/12 05:54:53;;;;;;;2.85;1.90;;;21.60;67.20;;;;;;4977389;28;20042;-50
2023/08/12 05:57:18;;;;;;;3.60;2.03;;;21.60;67.30;;;;;;4979763;28;20169;-49
2023/08/12 05:59:44;;;;;;;1.77;1.67;;;21.60;67.40;;;;;;4979823;28;20042;-48
2023/08/12 06:02:09;;;;;;;2.83;2.63;;;21.60;67.30;;;;;;4987294;28;20034;-49
2023/08/12 06:04:35;;;;;;;2.47;2.25;;;21.70;67.30;;;;;;4980718;28;20215;-49
2023/08/12 06:07:01;;;;;;;5.15;2.17;;;21.70;67.30;;;;;;4978747;28;20043;-50
2023/08/12 06:09:26;;;;;;;2.50;1.92;;;21.70;67.40;;;;;;4979982;28;20432;-50
2023/08/12 06:11:52;;;;;;;2.58;2.25;;;21.70;67.50;;;;;;4980566;28;20106;-49
2023/08/12 06:14:17;;;;;;;5.68;2.13;;;21.70;67.60;;;;;;4980923;28;20145;-49
2023/08/12 06:16:43;;;;;;;3.00;2.10;;;21.70;67.80;;;;;;4992241;28;20085;-52
2023/08/12 06:19:08;;;;;;;2.35;2.10;;;21.70;67.80;;;;;;4976785;28;20031;-50
2023/08/12 06:21:34;;;;;;;1.92;1.77;;;21.70;67.90;;;;;;4979973;28;20121;-48
2023/08/12 06:23:59;;;;;;;5.28;2.22;;;21.70;67.80;;;;;;4982458;28;20027;-49
2023/08/12 06:26:25;;;;;;;3.83;2.03;;;21.70;67.70;;;;;;4985042;28;20034;-50
2023/08/12 06:28:50;;;;;;;3.60;2.60;;;21.70;68.00;;;;;;4976694;28;20165;-49
2023/08/12 06:31:16;;;;;;;2.40;2.20;;;21.70;68.10;;;;;;4980335;28;20034;-49
2023/08/12 06:33:41;;;;;;;3.10;2.10;;;21.70;68.20;;;;;;4985130;28;20424;-49
2023/08/12 06:36:07;;;;;;;3.25;2.35;;;21.70;68.70;;;;;;4985023;28;20031;-50
2023/08/12 06:38:32;;;;;;;4.07;2.47;;;21.70;68.80;;;;;;4982715;28;20057;-52
2023/08/12 06:40:58;;;;;;;2.47;2.20;;;21.70;68.70;;;;;;4984400;28;20699;-48
2023/08/12 06:43:23;;;;;;;3.33;2.65;;;21.70;68.60;;;;;;4979528;28;20034;-49
2023/08/12 06:45:49;;;;;;;2.60;2.40;;;21.70;68.80;;;;;;4981932;28;20031;-51
2023/08/12 06:48:14;;;;;;;3.25;2.22;;;21.70;68.60;;;;;;4981111;28;20117;-49
2023/08/12 06:50:40;;;;;;;3.97;2.22;;;21.70;68.80;;;;;;4980355;28;20031;-50
2023/08/12 06:53:05;;;;;;;3.45;2.33;;;21.70;68.50;;;;;;4982163;28;20037;-52
2023/08/12 06:55:31;;;;;;;4.20;2.63;;;21.70;68.30;;;;;;4984589;28;20043;-50
2023/08/12 06:57:56;;;;;;;3.95;2.63;;;21.70;68.50;;;;;;4973822;28;20031;-49
2023/08/12 07:00:22;;;;;;;3.38;2.40;;;21.70;68.50;;;;;;4974962;28;20046;-50
2023/08/12 07:02:48;;;;;;;4.53;2.55;;;21.70;68.40;;;;;;4982011;28;20045;-50
2023/08/12 07:05:13;;;;;;;2.42;2.20;;;21.70;68.50;;;;;;4975464;28;20034;-50
2023/08/12 07:07:39;;;;;;;3.72;2.30;;;21.70;68.50;;;;;;4978053;28;20069;-49
2023/08/12 07:10:06;;;;;;;3.38;2.30;;;21.70;68.70;;;;;;4977345;28;20038;-51
2023/08/12 07:12:32;;;;;;;2.95;2.38;;;21.70;68.70;;;;;;4976761;28;20047;-49
2023/08/12 07:14:58;;;;;;;3.28;2.97;;;21.80;68.70;;;;;;4977845;28;20031;-49
2023/08/12 07:17:23;;;;;;;3.83;3.30;;;21.80;68.80;;;;;;4978819;28;20045;-49
2023/08/12 07:19:49;;;;;;;5.38;3.75;;;21.80;69.10;;;;;;4977272;28;20035;-50
2023/08/12 07:22:18;;;;;;;5.90;3.60;;;21.80;69.10;;;;;;4981058;28;20034;-50
2023/08/12 07:24:43;;;;;;;8.75;6.30;;;21.80;69.30;;;;;;4977301;28;20035;-49
2023/08/12 07:27:09;;;;;;;7.32;5.50;;;21.80;69.60;;;;;;4977349;28;20522;-48
2023/08/12 07:29:34;;;;;;;8.90;4.88;;;21.80;69.50;;;;;;4978563;28;20023;-51
2023/08/12 07:32:00;;;;;;;8.90;4.65;;;21.90;69.50;;;;;;4978656;28;20018;-49
2023/08/12 07:34:25;;;;;;;8.73;4.60;;;21.90;69.50;;;;;;4979153;28;20675;-51
2023/08/12 07:36:51;;;;;;;6.60;4.55;;;21.90;69.70;;;;;;4969825;28;20515;-50
2023/08/12 07:39:17;;;;;;;5.75;4.20;;;21.90;69.40;;;;;;4977086;28;20034;-50
2023/08/12 07:41:42;;;;;;;6.50;3.67;;;21.90;69.50;;;;;;4974632;28;20027;-50
2023/08/12 07:44:08;;;;;;;6.72;3.67;;;21.90;69.50;;;;;;4978252;28;20023;-50
2023/08/12 07:46:33;;;;;;;4.25;3.22;;;21.90;69.70;;;;;;4978038;28;20041;-50
2023/08/12 07:48:59;;;;;;;3.72;2.80;;;21.90;69.60;;;;;;4977214;28;20061;-50
2023/08/12 07:51:24;;;;;;;3.40;3.00;;;22.00;69.80;;;;;;4976868;28;20073;-49
2023/08/12 07:53:50;;;;;;;4.85;3.50;;;22.00;69.70;;;;;;4977021;28;20038;-56
2023/08/12 07:56:15;;;;;;;6.05;3.03;;;22.00;69.60;;;;;;4972598;28;20057;-50
2023/08/12 07:58:41;;;;;;;4.32;3.10;;;22.00;69.40;;;;;;4975922;28;20045;-49
2023/08/12 08:01:08;;;;;;;3.38;2.92;;;22.00;69.30;;;;;;4975845;28;20030;-49
2023/08/12 08:03:34;;;;;;;5.78;3.10;;;22.00;69.60;;;;;;4976893;28;20093;-51
2023/08/12 08:05:59;;;;;;;3.03;2.80;;;22.00;69.30;;;;;;4976728;28;20034;-50
2023/08/12 08:08:25;;;;;;;3.90;3.40;;;22.00;69.40;;;;;;4974015;28;20052;-51
2023/08/12 08:10:50;;;;;;;4.75;3.00;;;22.10;69.50;;;;;;4971808;28;20097;-54
2023/08/12 08:13:16;;;;;;;3.38;2.75;;;22.10;69.40;;;;;;4975456;28;20062;-51
2023/08/12 08:15:41;;;;;;;3.00;2.70;;;22.10;69.30;;;;;;4973693;28;20088;-49
2023/08/12 08:18:07;;;;;;;4.07;2.75;;;22.10;69.30;;;;;;4975283;28;20070;-50
2023/08/12 08:20:33;;;;;;;2.67;2.20;;;22.10;69.20;;;;;;4978228;28;20092;-49
2023/08/12 08:22:58;;;;;;;3.10;2.63;;;22.10;69.00;;;;;;4977820;28;20447;-49
2023/08/12 08:25:24;;;;;;;3.28;2.50;;;22.10;68.90;;;;;;4974930;28;20034;-51
2023/08/12 08:27:50;;;;;;;3.13;2.67;;;22.10;68.80;;;;;;4981675;28;20030;-52
2023/08/12 08:30:15;;;;;;;3.08;2.78;;;22.10;68.80;;;;;;4981771;28;20515;-49
2023/08/12 08:32:41;;;;;;;4.60;2.40;;;22.10;68.70;;;;;;4975526;28;20049;-50
2023/08/12 08:35:06;;;;;;;5.32;2.53;;;22.10;68.70;;;;;;4972421;28;20034;-49
2023/08/12 08:37:32;;;;;;;3.13;2.60;;;22.00;68.70;;;;;;4981627;28;20034;-50
2023/08/12 08:39:57;;;;;;;2.70;2.40;;;22.10;68.80;;;;;;4978061;28;20027;-49
2023/08/12 08:42:24;;;;;;;4.43;2.40;;;22.00;68.80;;;;;;4976887;28;20282;-51
2023/08/12 08:44:55;;;;;;;4.15;2.20;;;22.10;68.80;;;;;;4979906;28;20516;-50
2023/08/12 08:47:26;;;;;;;3.08;2.63;;;22.00;68.80;;;;;;4977279;28;20089;-51
2023/08/12 08:49:56;;;;;;;3.13;2.60;;;22.00;68.90;;;;;;4978604;28;20897;-49
2023/08/12 08:52:23;;;;;;;3.40;2.72;;;22.10;69.10;;;;;;4977872;28;20042;-50
2023/08/12 08:54:49;;;;;;;3.40;2.33;;;22.00;69.00;;;;;;4978296;28;20031;-49
2023/08/12 08:57:15;;;;;;;2.97;2.30;;;22.00;69.20;;;;;;4977533;28;20165;-49
2023/08/12 08:59:41;;;;;;;4.53;3.08;;;22.00;69.10;;;;;;4974758;28;20265;-52
2023/08/12 09:02:13;;;;;;;5.25;2.55;;;22.10;69.30;;;;;;4975818;28;20080;-48
2023/08/12 09:04:39;;;;;;;3.25;2.95;;;22.10;69.40;;;;;;4973626;28;20092;-50
2023/08/12 09:07:05;;;;;;;3.38;2.70;;;22.10;69.50;;;;;;4976675;28;20042;-51
2023/08/12 09:09:32;;;;;;;2.85;2.65;;;22.10;69.60;;;;;;4975530;28;20058;-50
2023/08/12 09:11:57;;;;;;;2.53;2.33;;;22.10;69.90;;;;;;4976643;28;20124;-49
2023/08/12 09:14:23;;;;;;;3.40;3.10;;;22.10;70.00;;;;;;4978826;28;20031;-55
2023/08/12 09:16:49;;;;;;;3.40;2.33;;;22.10;70.10;;;;;;4977374;28;20927;-49
2023/08/12 09:19:14;;;;;;;3.58;2.80;;;22.10;70.20;;;;;;4973724;28;20114;-50
2023/08/12 09:21:41;;;;;;;2.90;2.55;;;22.20;70.20;;;;;;4973902;28;20030;-49
2023/08/12 09:24:08;;;;;;;3.53;2.60;;;22.20;70.20;;;;;;4975193;28;20027;-49
2023/08/12 09:26:34;;;;;;;3.30;2.40;;;22.20;70.20;;;;;;4978443;28;20031;-48
2023/08/12 09:29:02;;;;;;;3.83;2.78;;;22.20;70.20;;;;;;4972327;28;20066;-50
2023/08/12 09:31:30;;;;;;;4.93;2.83;;;22.20;70.10;;;;;;4978425;28;20488;-50
2023/08/12 09:34:06;;;;;;;4.75;2.67;;;22.20;70.10;;;;;;4976423;28;20066;-48
2023/08/12 09:36:32;;;;;;;2.83;2.63;;;22.20;70.10;;;;;;4978961;28;20050;-49
2023/08/12 09:38:58;;;;;;;3.30;2.97;;;22.20;70.00;;;;;;4980404;28;20089;-49
2023/08/12 09:41:26;;;;;;;4.07;2.92;;;22.30;70.10;;;;;;4978948;28;20270;-48
2023/08/12 09:43:53;;;;;;;3.70;2.60;;;22.30;69.90;;;;;;4981891;28;20053;-50
2023/08/12 09:46:20;;;;;;;4.05;2.30;;;22.30;69.90;;;;;;4980614;28;20061;-50
2023/08/12 09:48:46;;;;;;;2.83;2.28;;;22.30;70.40;;;;;;4979034;28;20085;-51
2023/08/12 09:51:13;;;;;;;3.58;2.88;;;22.30;69.80;;;;;;4979010;28;20055;-48
2023/08/12 09:53:41;;;;;;;5.57;2.80;;;22.30;69.90;;;;;;4980145;28;20026;-48
2023/08/12 09:56:10;;;;;;;3.80;2.53;;;22.30;69.90;;;;;;4977425;28;20196;-50
2023/08/12 09:58:37;;;;;;;4.40;2.28;;;22.30;70.00;;;;;;4978665;28;20038;-49
2023/08/12 10:01:07;;;;;;;2.83;2.63;;;22.30;69.80;;;;;;4976572;28;20034;-51
2023/08/12 10:03:35;;;;;;;2.65;2.45;;;22.30;69.80;;;;;;4974000;28;20579;-48
2023/08/12 10:06:03;;;;;;;2.75;2.10;;;22.40;69.80;;;;;;4979166;28;20038;-48
2023/08/12 10:08:29;;;;;;;2.40;2.20;;;22.30;69.80;;;;;;4978362;28;20112;-53
2023/08/12 10:10:55;;;;;;;2.83;2.47;;;22.30;69.70;;;;;;4981547;28;20484;-49
2023/08/12 10:13:24;;;;;;;2.80;2.20;;;22.30;69.60;;;;;;4977425;28;20054;-49
2023/08/12 10:15:50;;;;;;;3.10;2.28;;;22.30;69.60;;;;;;4978850;28;20034;-49
2023/08/12 10:18:17;;;;;;;2.42;2.10;;;22.30;69.70;;;;;;4978605;28;20031;-49
2023/08/12 10:20:44;;;;;;;2.33;2.13;;;22.30;69.60;;;;;;4979516;28;20790;-49
2023/08/12 10:23:13;;;;;;;2.03;1.83;;;22.40;69.50;;;;;;4978585;28;20038;-51
2023/08/12 10:25:42;;;;;;;2.72;2.13;;;22.40;69.50;;;;;;4977974;28;20027;-49
2023/08/12 10:28:08;;;;;;;1.95;1.80;;;22.40;69.60;;;;;;4979190;28;20038;-49
2023/08/12 10:30:34;;;;;;;3.15;2.20;;;22.30;69.40;;;;;;4978315;28;20030;-51
2023/08/12 10:33:00;;;;;;;2.75;1.85;;;22.30;69.40;;;;;;4979791;28;20399;-48
2023/08/12 10:35:41;;;;;;;2.38;1.92;;;22.30;69.40;;;;;;4978487;28;20038;-49
2023/08/12 10:38:07;;;;;;;3.55;1.95;;;22.30;69.30;;;;;;4975835;28;20394;-49
2023/08/12 10:40:32;;;;;;;2.03;1.83;;;22.30;69.20;;;;;;4981380;28;20037;-49
2023/08/12 10:42:58;;;;;;;2.45;1.88;;;22.30;69.10;;;;;;4979882;28;20035;-51
2023/08/12 10:45:46;;;;;;;1.92;1.55;;;22.30;69.10;;;;;;4977247;28;20750;-50
2023/08/12 10:48:25;;;;;;;1.90;1.75;;;22.40;69.00;;;;;;4975685;28;20362;-49
2023/08/12 10:50:55;;;;;;;2.25;1.67;;;22.40;69.00;;;;;;4979428;28;20027;-50
2023/08/12 10:53:29;;;;;;;2.42;1.80;;;22.40;68.90;;;;;;4982449;28;20111;-50
2023/08/12 10:56:00;;;;;;;1.98;1.73;;;22.40;68.90;;;;;;4981541;28;20030;-48
2023/08/12 10:58:44;;;;;;;1.65;1.45;;;22.40;68.90;;;;;;4977781;28;20035;-49
2023/08/12 11:01:16;;;;;;;1.95;1.75;;;22.40;68.90;;;;;;4974443;28;20122;-51
2023/08/12 11:03:46;;;;;;;1.77;1.67;;;22.40;68.80;;;;;;4977776;28;22123;-50
2023/08/12 11:06:12;;;;;;;2.47;2.28;;;22.40;68.90;;;;;;4977858;28;25167;-51
2023/08/12 11:08:47;;;;;;;1.90;1.58;;;22.40;68.90;;;;;;4991157;28;20038;-51
2023/08/12 11:11:24;;;;;;;2.67;2.00;;;22.40;69.50;;;;;;4975283;28;20042;-49
2023/08/12 11:13:55;;;;;;;1.90;1.70;;;22.40;68.80;;;;;;4972344;28;20038;-49
2023/08/12 11:16:42;;;;;;;2.13;1.90;;;22.50;68.80;;;;;;4979997;28;20042;-49
2023/08/12 11:19:08;;;;;;;1.98;1.75;;;22.40;68.80;;;;;;4978074;28;20035;-50
2023/08/12 11:21:36;;;;;;;1.98;1.83;;;22.40;68.60;;;;;;4978504;28;20613;-50
2023/08/12 11:24:02;;;;;;;2.17;1.85;;;22.50;68.60;;;;;;4974569;28;20034;-50
2023/08/12 11:26:28;;;;;;;2.50;1.80;;;22.40;68.50;;;;;;4980178;28;20516;-54
2023/08/12 11:28:53;;;;;;;2.53;1.85;;;22.50;68.70;;;;;;4971537;28;20045;-49
2023/08/12 11:31:19;;;;;;;1.75;1.65;;;22.40;68.70;;;;;;4982380;28;20439;-51
2023/08/12 11:33:45;;;;;;;3.13;1.88;;;22.40;68.70;;;;;;4971197;28;20437;-51
2023/08/12 11:36:10;;;;;;;2.08;1.88;;;22.50;68.80;;;;;;4984016;28;20031;-50
2023/08/12 11:38:37;;;;;;;1.80;1.70;;;22.50;68.90;;;;;;4974870;28;20511;-50
2023/08/12 11:41:03;;;;;;;2.13;1.92;;;22.50;68.90;;;;;;4972276;28;20070;-49
2023/08/12 11:43:30;;;;;;;1.92;1.50;;;22.40;68.90;;;;;;4976453;28;20154;-49
2023/08/12 11:45:56;;;;;;;4.15;1.80;;;22.50;68.90;;;;;;4977382;28;20042;-51
2023/08/12 11:48:23;;;;;;;2.47;1.67;;;22.50;68.80;;;;;;4982950;28;20687;-51
2023/08/12 11:50:49;;;;;;;1.65;1.52;;;22.40;68.70;;;;;;4971841;28;20469;-49
2023/08/12 11:53:15;;;;;;;1.50;1.40;;;22.40;68.70;;;;;;4982875;28;20031;-49
2023/08/12 11:55:40;;;;;;;1.48;1.38;;;22.40;68.60;;;;;;4969324;28;20041;-49
2023/08/12 11:58:06;;;;;;;1.33;1.23;;;22.40;69.20;;;;;;4983225;28;20023;-50
2023/08/12 12:00:33;;;;;;;1.67;1.58;;;22.50;68.50;;;;;;4972966;28;20034;-50
2023/08/12 12:02:58;;;;;;;2.10;1.70;;;22.50;68.40;;;;;;4978240;28;20557;-50
2023/08/12 12:05:27;;;;;;;1.98;1.33;;;22.50;68.30;;;;;;4977534;28;20042;-51
2023/08/12 12:07:53;;;;;;;1.67;1.50;;;22.50;68.20;;;;;;4975797;28;20042;-53
2023/08/12 12:10:31;;;;;;;1.42;1.27;;;22.50;68.10;;;;;;4974097;28;20571;-50
2023/08/12 12:12:57;;;;;;;2.28;1.15;;;22.50;68.00;;;;;;4974098;28;20120;-50
2023/08/12 12:15:22;;;;;;;1.40;1.27;;;22.50;68.00;;;;;;4971097;28;20035;-52
2023/08/12 12:17:50;;;;;;;2.20;0.95;;;22.60;68.10;;;;;;4975762;28;20116;-50
2023/08/12 12:20:16;;;;;;;1.67;1.13;;;22.50;67.90;;;;;;4969217;28;20046;-50
2023/08/12 12:22:46;;;;;;;2.25;1.50;;;22.60;67.90;;;;;;4975262;28;20034;-50
2023/08/12 12:25:13;;;;;;;2.42;1.30;;;22.60;67.90;;;;;;4978212;28;20030;-50
2023/08/12 12:27:40;;;;;;;1.48;1.30;;;22.60;67.90;;;;;;4975043;28;20039;-50
2023/08/12 12:30:10;;;;;;;1.20;1.10;;;22.60;67.80;;;;;;4979962;28;20045;-49
2023/08/12 12:32:36;;;;;;;1.30;1.20;;;22.60;67.80;;;;;;4979722;28;20513;-51
2023/08/12 12:35:03;;;;;;;1.92;1.77;;;22.60;67.70;;;;;;4982412;28;20054;-49
2023/08/12 12:37:29;;;;;;;1.30;1.20;;;22.60;67.60;;;;;;4974434;28;20035;-50
2023/08/12 12:39:54;;;;;;;2.75;1.30;;;22.60;67.50;;;;;;4989459;28;20061;-51
2023/08/12 12:42:20;;;;;;;3.55;1.35;;;22.60;67.50;;;;;;4975528;28;20106;-49
2023/08/12 12:44:45;;;;;;;1.50;1.27;;;22.60;67.50;;;;;;4972130;28;20034;-49